sensor_id;sensor_type;location;lat;lon;timestamp;P1;durP1;ratioP1;P2;durP2;ratioP2
7961;SDS011;4026;43.652;24.906;2023-06-26T00:00:03;4.10;;;2.30;;
7961;SDS011;4026;43.652;24.906;2023-06-26T00:02:31;3.83;;;2.40;;
7961;SDS011;4026;43.652;24.906;2023-06-26T00:04:59;4.37;;;2.50;;
7961;SDS011;4026;43.652;24.906;2023-06-26T00:07:27;4.23;;;2.50;;
7961;SDS011;4026;43.652;24.906;2023-06-26T00:09:56;3.73;;;2.50;;
7961;SDS011;4026;43.652;24.906;2023-06-26T00:12:23;3.87;;;2.23;;
7961;SDS011;4026;43.652;24.906;2023-06-26T00:14:50;4.53;;;2.40;;
7961;SDS011;4026;43.652;24.906;2023-06-26T00:17:17;6.47;;;2.67;;
7961;SDS011;4026;43.652;24.906;2023-06-26T00:19:44;4.87;;;2.97;;
7961;SDS011;4026;43.652;24.906;2023-06-26T00:22:11;4.97;;;2.77;;
7961;SDS011;4026;43.652;24.906;2023-06-26T00:24:38;4.83;;;2.27;;
7961;SDS011;4026;43.652;24.906;2023-06-26T00:27:06;4.37;;;2.33;;
7961;SDS011;4026;43.652;24.906;2023-06-26T00:29:34;6.13;;;2.67;;
7961;SDS011;4026;43.652;24.906;2023-06-26T00:32:01;14.90;;;2.83;;
7961;SDS011;4026;43.652;24.906;2023-06-26T00:34:28;6.17;;;2.80;;
7961;SDS011;4026;43.652;24.906;2023-06-26T00:36:55;4.63;;;2.60;;
7961;SDS011;4026;43.652;24.906;2023-06-26T00:39:22;3.43;;;2.50;;
7961;SDS011;4026;43.652;24.906;2023-06-26T00:41:51;4.37;;;2.53;;
7961;SDS011;4026;43.652;24.906;2023-06-26T00:44:21;3.40;;;2.40;;
7961;SDS011;4026;43.652;24.906;2023-06-26T00:46:48;3.47;;;2.23;;
7961;SDS011;4026;43.652;24.906;2023-06-26T00:49:15;3.93;;;2.37;;
7961;SDS011;4026;43.652;24.906;2023-06-26T00:51:42;3.43;;;2.20;;
7961;SDS011;4026;43.652;24.906;2023-06-26T00:54:10;3.60;;;2.30;;
7961;SDS011;4026;43.652;24.906;2023-06-26T00:56:37;3.07;;;2.20;;
7961;SDS011;4026;43.652;24.906;2023-06-26T00:59:05;3.10;;;2.30;;
7961;SDS011;4026;43.652;24.906;2023-06-26T01:01:33;2.93;;;2.03;;
7961;SDS011;4026;43.652;24.906;2023-06-26T01:04:00;3.50;;;2.23;;
7961;SDS011;4026;43.652;24.906;2023-06-26T01:06:27;5.97;;;2.30;;
7961;SDS011;4026;43.652;24.906;2023-06-26T01:09:00;4.07;;;2.30;;
7961;SDS011;4026;43.652;24.906;2023-06-26T01:11:28;3.00;;;2.13;;
7961;SDS011;4026;43.652;24.906;2023-06-26T01:13:54;3.27;;;2.00;;
7961;SDS011;4026;43.652;24.906;2023-06-26T01:16:26;5.63;;;2.47;;
7961;SDS011;4026;43.652;24.906;2023-06-26T01:18:57;4.23;;;2.47;;
7961;SDS011;4026;43.652;24.906;2023-06-26T01:21:24;4.43;;;2.43;;
7961;SDS011;4026;43.652;24.906;2023-06-26T01:23:58;3.97;;;2.50;;
7961;SDS011;4026;43.652;24.906;2023-06-26T01:26:33;2.87;;;1.93;;
7961;SDS011;4026;43.652;24.906;2023-06-26T01:29:02;5.53;;;2.53;;
7961;SDS011;4026;43.652;24.906;2023-06-26T01:31:30;3.03;;;2.17;;
7961;SDS011;4026;43.652;24.906;2023-06-26T01:33:58;3.93;;;2.27;;
7961;SDS011;4026;43.652;24.906;2023-06-26T01:36:25;3.13;;;2.13;;
7961;SDS011;4026;43.652;24.906;2023-06-26T01:38:53;4.17;;;2.30;;
7961;SDS011;4026;43.652;24.906;2023-06-26T01:41:20;3.33;;;2.10;;
7961;SDS011;4026;43.652;24.906;2023-06-26T01:43:55;4.80;;;2.63;;
7961;SDS011;4026;43.652;24.906;2023-06-26T01:46:32;3.97;;;2.30;;
7961;SDS011;4026;43.652;24.906;2023-06-26T01:49:07;4.90;;;2.50;;
7961;SDS011;4026;43.652;24.906;2023-06-26T01:51:38;5.23;;;2.73;;
7961;SDS011;4026;43.652;24.906;2023-06-26T01:54:10;3.87;;;2.47;;
7961;SDS011;4026;43.652;24.906;2023-06-26T01:56:43;4.53;;;2.83;;
7961;SDS011;4026;43.652;24.906;2023-06-26T01:59:13;6.37;;;2.57;;
7961;SDS011;4026;43.652;24.906;2023-06-26T02:01:41;8.23;;;3.07;;
7961;SDS011;4026;43.652;24.906;2023-06-26T02:04:08;5.33;;;2.37;;
7961;SDS011;4026;43.652;24.906;2023-06-26T02:06:35;5.90;;;3.20;;
7961;SDS011;4026;43.652;24.906;2023-06-26T02:09:02;3.50;;;2.30;;
7961;SDS011;4026;43.652;24.906;2023-06-26T02:11:29;6.60;;;2.50;;
7961;SDS011;4026;43.652;24.906;2023-06-26T02:13:56;6.87;;;2.53;;
7961;SDS011;4026;43.652;24.906;2023-06-26T02:16:24;5.10;;;2.33;;
7961;SDS011;4026;43.652;24.906;2023-06-26T02:18:51;7.57;;;2.87;;
7961;SDS011;4026;43.652;24.906;2023-06-26T02:21:18;4.70;;;2.60;;
7961;SDS011;4026;43.652;24.906;2023-06-26T02:23:44;5.23;;;2.40;;
7961;SDS011;4026;43.652;24.906;2023-06-26T02:26:11;4.53;;;2.30;;
7961;SDS011;4026;43.652;24.906;2023-06-26T02:28:38;5.97;;;2.50;;
7961;SDS011;4026;43.652;24.906;2023-06-26T02:31:05;6.50;;;2.73;;
7961;SDS011;4026;43.652;24.906;2023-06-26T02:33:33;7.13;;;2.70;;
7961;SDS011;4026;43.652;24.906;2023-06-26T02:36:00;7.67;;;2.87;;
7961;SDS011;4026;43.652;24.906;2023-06-26T02:38:27;5.90;;;2.83;;
7961;SDS011;4026;43.652;24.906;2023-06-26T02:40:54;4.50;;;2.77;;
7961;SDS011;4026;43.652;24.906;2023-06-26T02:43:21;9.90;;;3.30;;
7961;SDS011;4026;43.652;24.906;2023-06-26T02:45:48;4.10;;;2.40;;
7961;SDS011;4026;43.652;24.906;2023-06-26T02:48:14;3.50;;;2.30;;
7961;SDS011;4026;43.652;24.906;2023-06-26T02:50:43;4.20;;;2.47;;
7961;SDS011;4026;43.652;24.906;2023-06-26T02:53:11;3.37;;;2.40;;
7961;SDS011;4026;43.652;24.906;2023-06-26T02:55:38;4.67;;;2.87;;
7961;SDS011;4026;43.652;24.906;2023-06-26T02:58:05;4.60;;;2.60;;
7961;SDS011;4026;43.652;24.906;2023-06-26T03:00:32;3.43;;;2.17;;
7961;SDS011;4026;43.652;24.906;2023-06-26T03:02:59;5.33;;;2.90;;
7961;SDS011;4026;43.652;24.906;2023-06-26T03:05:26;4.87;;;2.57;;
7961;SDS011;4026;43.652;24.906;2023-06-26T03:07:54;4.50;;;2.63;;
7961;SDS011;4026;43.652;24.906;2023-06-26T03:10:21;4.20;;;2.57;;
7961;SDS011;4026;43.652;24.906;2023-06-26T03:12:49;3.87;;;2.57;;
7961;SDS011;4026;43.652;24.906;2023-06-26T03:15:16;6.83;;;2.73;;
7961;SDS011;4026;43.652;24.906;2023-06-26T03:17:44;4.40;;;2.90;;
7961;SDS011;4026;43.652;24.906;2023-06-26T03:20:11;7.17;;;2.70;;
7961;SDS011;4026;43.652;24.906;2023-06-26T03:22:38;5.43;;;2.80;;
7961;SDS011;4026;43.652;24.906;2023-06-26T03:25:06;4.77;;;2.93;;
7961;SDS011;4026;43.652;24.906;2023-06-26T03:27:34;6.57;;;3.07;;
7961;SDS011;4026;43.652;24.906;2023-06-26T03:30:01;5.03;;;2.87;;
7961;SDS011;4026;43.652;24.906;2023-06-26T03:32:27;4.80;;;2.80;;
7961;SDS011;4026;43.652;24.906;2023-06-26T03:34:54;6.00;;;3.07;;
7961;SDS011;4026;43.652;24.906;2023-06-26T03:37:21;7.37;;;3.60;;
7961;SDS011;4026;43.652;24.906;2023-06-26T03:39:48;5.07;;;2.83;;
7961;SDS011;4026;43.652;24.906;2023-06-26T03:42:16;6.80;;;3.03;;
7961;SDS011;4026;43.652;24.906;2023-06-26T03:44:43;5.57;;;3.30;;
7961;SDS011;4026;43.652;24.906;2023-06-26T03:47:10;6.27;;;3.80;;
7961;SDS011;4026;43.652;24.906;2023-06-26T03:49:37;6.93;;;3.40;;
7961;SDS011;4026;43.652;24.906;2023-06-26T03:52:04;7.80;;;3.60;;
7961;SDS011;4026;43.652;24.906;2023-06-26T03:54:31;8.00;;;3.50;;
7961;SDS011;4026;43.652;24.906;2023-06-26T03:56:59;5.40;;;3.80;;
7961;SDS011;4026;43.652;24.906;2023-06-26T03:59:27;8.17;;;3.97;;
7961;SDS011;4026;43.652;24.906;2023-06-26T04:01:54;6.43;;;3.50;;
7961;SDS011;4026;43.652;24.906;2023-06-26T04:04:21;5.80;;;3.60;;
7961;SDS011;4026;43.652;24.906;2023-06-26T04:06:48;6.35;;;3.38;;
7961;SDS011;4026;43.652;24.906;2023-06-26T04:09:15;8.20;;;3.97;;
7961;SDS011;4026;43.652;24.906;2023-06-26T04:11:44;8.63;;;4.73;;
7961;SDS011;4026;43.652;24.906;2023-06-26T04:14:11;8.50;;;4.27;;
7961;SDS011;4026;43.652;24.906;2023-06-26T04:16:39;7.60;;;3.90;;
7961;SDS011;4026;43.652;24.906;2023-06-26T04:19:06;8.20;;;4.03;;
7961;SDS011;4026;43.652;24.906;2023-06-26T04:21:35;7.17;;;4.27;;
7961;SDS011;4026;43.652;24.906;2023-06-26T04:24:02;7.77;;;4.60;;
7961;SDS011;4026;43.652;24.906;2023-06-26T04:26:29;8.43;;;4.27;;
7961;SDS011;4026;43.652;24.906;2023-06-26T04:28:56;8.13;;;4.10;;
7961;SDS011;4026;43.652;24.906;2023-06-26T04:31:23;12.57;;;4.30;;
7961;SDS011;4026;43.652;24.906;2023-06-26T04:33:51;7.63;;;4.57;;
7961;SDS011;4026;43.652;24.906;2023-06-26T04:36:19;8.52;;;4.68;;
7961;SDS011;4026;43.652;24.906;2023-06-26T04:38:47;6.80;;;4.03;;
7961;SDS011;4026;43.652;24.906;2023-06-26T04:41:14;8.73;;;4.20;;
7961;SDS011;4026;43.652;24.906;2023-06-26T04:43:41;10.17;;;4.57;;
7961;SDS011;4026;43.652;24.906;2023-06-26T04:46:08;8.27;;;4.17;;
7961;SDS011;4026;43.652;24.906;2023-06-26T04:48:35;6.90;;;4.27;;
7961;SDS011;4026;43.652;24.906;2023-06-26T04:51:03;10.57;;;4.80;;
7961;SDS011;4026;43.652;24.906;2023-06-26T04:53:30;7.95;;;3.88;;
7961;SDS011;4026;43.652;24.906;2023-06-26T04:55:57;9.67;;;4.20;;
7961;SDS011;4026;43.652;24.906;2023-06-26T04:58:24;7.43;;;3.73;;
7961;SDS011;4026;43.652;24.906;2023-06-26T05:00:51;6.72;;;3.70;;
7961;SDS011;4026;43.652;24.906;2023-06-26T05:03:18;9.82;;;4.43;;
7961;SDS011;4026;43.652;24.906;2023-06-26T05:05:45;8.07;;;4.63;;
7961;SDS011;4026;43.652;24.906;2023-06-26T05:08:14;7.13;;;3.92;;
7961;SDS011;4026;43.652;24.906;2023-06-26T05:10:41;6.63;;;4.18;;
7961;SDS011;4026;43.652;24.906;2023-06-26T05:13:08;8.03;;;4.13;;
7961;SDS011;4026;43.652;24.906;2023-06-26T05:15:36;7.75;;;4.40;;
7961;SDS011;4026;43.652;24.906;2023-06-26T05:18:03;7.20;;;4.03;;
7961;SDS011;4026;43.652;24.906;2023-06-26T05:20:30;7.80;;;4.15;;
7961;SDS011;4026;43.652;24.906;2023-06-26T05:22:58;6.90;;;4.20;;
7961;SDS011;4026;43.652;24.906;2023-06-26T05:25:26;6.35;;;4.03;;
7961;SDS011;4026;43.652;24.906;2023-06-26T05:27:54;6.82;;;4.20;;
7961;SDS011;4026;43.652;24.906;2023-06-26T05:30:22;9.48;;;3.92;;
7961;SDS011;4026;43.652;24.906;2023-06-26T05:32:50;7.03;;;4.13;;
7961;SDS011;4026;43.652;24.906;2023-06-26T05:35:18;8.27;;;4.47;;
7961;SDS011;4026;43.652;24.906;2023-06-26T05:37:47;6.30;;;4.13;;
7961;SDS011;4026;43.652;24.906;2023-06-26T05:40:16;5.93;;;3.85;;
7961;SDS011;4026;43.652;24.906;2023-06-26T05:42:45;10.93;;;4.18;;
7961;SDS011;4026;43.652;24.906;2023-06-26T05:45:13;8.13;;;4.68;;
7961;SDS011;4026;43.652;24.906;2023-06-26T05:47:40;8.57;;;4.55;;
7961;SDS011;4026;43.652;24.906;2023-06-26T05:50:08;8.27;;;3.95;;
7961;SDS011;4026;43.652;24.906;2023-06-26T05:52:36;6.88;;;4.05;;
7961;SDS011;4026;43.652;24.906;2023-06-26T05:55:05;7.03;;;4.10;;
7961;SDS011;4026;43.652;24.906;2023-06-26T05:57:33;6.22;;;4.13;;
7961;SDS011;4026;43.652;24.906;2023-06-26T06:00:05;5.70;;;3.83;;
7961;SDS011;4026;43.652;24.906;2023-06-26T06:02:35;8.20;;;3.95;;
7961;SDS011;4026;43.652;24.906;2023-06-26T06:05:03;9.40;;;4.22;;
7961;SDS011;4026;43.652;24.906;2023-06-26T06:07:31;6.07;;;3.88;;
7961;SDS011;4026;43.652;24.906;2023-06-26T06:09:58;5.78;;;3.80;;
7961;SDS011;4026;43.652;24.906;2023-06-26T06:12:25;13.48;;;7.78;;
7961;SDS011;4026;43.652;24.906;2023-06-26T06:14:52;8.73;;;4.40;;
7961;SDS011;4026;43.652;24.906;2023-06-26T06:17:21;5.75;;;3.63;;
7961;SDS011;4026;43.652;24.906;2023-06-26T06:19:48;4.15;;;2.92;;
7961;SDS011;4026;43.652;24.906;2023-06-26T06:22:15;8.90;;;3.70;;
7961;SDS011;4026;43.652;24.906;2023-06-26T06:24:42;5.22;;;3.15;;
7961;SDS011;4026;43.652;24.906;2023-06-26T06:27:10;5.45;;;3.75;;
7961;SDS011;4026;43.652;24.906;2023-06-26T06:29:38;6.75;;;4.07;;
7961;SDS011;4026;43.652;24.906;2023-06-26T06:32:05;5.68;;;3.53;;
7961;SDS011;4026;43.652;24.906;2023-06-26T06:34:34;6.68;;;3.90;;
7961;SDS011;4026;43.652;24.906;2023-06-26T06:37:01;5.55;;;3.80;;
7961;SDS011;4026;43.652;24.906;2023-06-26T06:39:28;6.38;;;3.67;;
7961;SDS011;4026;43.652;24.906;2023-06-26T06:41:55;7.25;;;3.80;;
7961;SDS011;4026;43.652;24.906;2023-06-26T06:44:22;6.00;;;3.53;;
7961;SDS011;4026;43.652;24.906;2023-06-26T06:46:49;7.20;;;3.53;;
7961;SDS011;4026;43.652;24.906;2023-06-26T06:49:16;5.60;;;3.35;;
7961;SDS011;4026;43.652;24.906;2023-06-26T06:51:44;5.82;;;3.60;;
7961;SDS011;4026;43.652;24.906;2023-06-26T06:54:11;4.75;;;3.53;;
7961;SDS011;4026;43.652;24.906;2023-06-26T06:56:38;6.05;;;3.75;;
7961;SDS011;4026;43.652;24.906;2023-06-26T06:59:05;7.47;;;4.40;;
7961;SDS011;4026;43.652;24.906;2023-06-26T07:01:32;5.70;;;3.70;;
7961;SDS011;4026;43.652;24.906;2023-06-26T07:03:59;4.78;;;3.53;;
7961;SDS011;4026;43.652;24.906;2023-06-26T07:06:26;6.88;;;3.88;;
7961;SDS011;4026;43.652;24.906;2023-06-26T07:08:54;6.95;;;3.88;;
7961;SDS011;4026;43.652;24.906;2023-06-26T07:11:21;5.70;;;3.78;;
7961;SDS011;4026;43.652;24.906;2023-06-26T07:13:48;8.13;;;4.05;;
7961;SDS011;4026;43.652;24.906;2023-06-26T07:16:14;6.13;;;4.13;;
7961;SDS011;4026;43.652;24.906;2023-06-26T07:18:41;6.55;;;3.80;;
7961;SDS011;4026;43.652;24.906;2023-06-26T07:21:08;7.75;;;4.10;;
7961;SDS011;4026;43.652;24.906;2023-06-26T07:23:35;7.10;;;4.00;;
7961;SDS011;4026;43.652;24.906;2023-06-26T07:26:03;5.35;;;3.83;;
7961;SDS011;4026;43.652;24.906;2023-06-26T07:28:30;5.53;;;3.78;;
7961;SDS011;4026;43.652;24.906;2023-06-26T07:30:57;5.95;;;3.83;;
7961;SDS011;4026;43.652;24.906;2023-06-26T07:33:24;9.07;;;4.30;;
7961;SDS011;4026;43.652;24.906;2023-06-26T07:35:51;8.88;;;4.30;;
7961;SDS011;4026;43.652;24.906;2023-06-26T07:38:18;6.32;;;4.07;;
7961;SDS011;4026;43.652;24.906;2023-06-26T07:40:45;5.63;;;4.07;;
7961;SDS011;4026;43.652;24.906;2023-06-26T07:43:13;7.20;;;4.63;;
7961;SDS011;4026;43.652;24.906;2023-06-26T07:45:40;6.35;;;4.45;;
7961;SDS011;4026;43.652;24.906;2023-06-26T07:48:08;5.57;;;3.75;;
7961;SDS011;4026;43.652;24.906;2023-06-26T07:50:35;6.70;;;4.60;;
7961;SDS011;4026;43.652;24.906;2023-06-26T07:53:02;7.82;;;4.20;;
7961;SDS011;4026;43.652;24.906;2023-06-26T07:55:30;7.18;;;4.60;;
7961;SDS011;4026;43.652;24.906;2023-06-26T07:57:57;8.75;;;4.75;;
7961;SDS011;4026;43.652;24.906;2023-06-26T08:00:25;7.03;;;4.25;;
7961;SDS011;4026;43.652;24.906;2023-06-26T08:02:52;7.68;;;4.80;;
7961;SDS011;4026;43.652;24.906;2023-06-26T08:05:19;6.82;;;4.38;;
7961;SDS011;4026;43.652;24.906;2023-06-26T08:07:46;7.57;;;4.30;;
7961;SDS011;4026;43.652;24.906;2023-06-26T08:10:13;7.82;;;4.90;;
7961;SDS011;4026;43.652;24.906;2023-06-26T08:12:40;8.55;;;4.22;;
7961;SDS011;4026;43.652;24.906;2023-06-26T08:15:08;6.75;;;4.57;;
7961;SDS011;4026;43.652;24.906;2023-06-26T08:17:37;8.15;;;4.45;;
7961;SDS011;4026;43.652;24.906;2023-06-26T08:20:04;6.45;;;4.15;;
7961;SDS011;4026;43.652;24.906;2023-06-26T08:22:33;10.50;;;4.13;;
7961;SDS011;4026;43.652;24.906;2023-06-26T08:25:00;6.35;;;4.15;;
7961;SDS011;4026;43.652;24.906;2023-06-26T08:27:28;5.97;;;4.30;;
7961;SDS011;4026;43.652;24.906;2023-06-26T08:29:55;6.80;;;4.30;;
7961;SDS011;4026;43.652;24.906;2023-06-26T08:32:22;6.38;;;3.95;;
7961;SDS011;4026;43.652;24.906;2023-06-26T08:34:50;7.88;;;4.38;;
7961;SDS011;4026;43.652;24.906;2023-06-26T08:37:17;6.50;;;4.15;;
7961;SDS011;4026;43.652;24.906;2023-06-26T09:07:10;5.03;;;3.78;;
7961;SDS011;4026;43.652;24.906;2023-06-26T09:09:37;4.97;;;3.25;;
7961;SDS011;4026;43.652;24.906;2023-06-26T09:12:04;7.38;;;3.78;;
7961;SDS011;4026;43.652;24.906;2023-06-26T09:14:32;6.35;;;4.10;;
7961;SDS011;4026;43.652;24.906;2023-06-26T09:16:58;5.15;;;3.90;;
7961;SDS011;4026;43.652;24.906;2023-06-26T09:19:26;5.38;;;3.83;;
7961;SDS011;4026;43.652;24.906;2023-06-26T09:21:52;6.38;;;4.03;;
7961;SDS011;4026;43.652;24.906;2023-06-26T09:24:22;5.32;;;3.80;;
7961;SDS011;4026;43.652;24.906;2023-06-26T09:26:50;8.80;;;3.83;;
7961;SDS011;4026;43.652;24.906;2023-06-26T09:29:17;6.68;;;3.92;;
7961;SDS011;4026;43.652;24.906;2023-06-26T09:31:45;6.72;;;4.00;;
7961;SDS011;4026;43.652;24.906;2023-06-26T09:34:12;5.13;;;3.85;;
7961;SDS011;4026;43.652;24.906;2023-06-26T09:36:39;5.43;;;3.67;;
7961;SDS011;4026;43.652;24.906;2023-06-26T09:39:11;5.72;;;3.88;;
7961;SDS011;4026;43.652;24.906;2023-06-26T09:41:42;6.45;;;4.10;;
7961;SDS011;4026;43.652;24.906;2023-06-26T09:44:10;5.68;;;3.90;;
7961;SDS011;4026;43.652;24.906;2023-06-26T09:46:38;5.93;;;3.47;;
7961;SDS011;4026;43.652;24.906;2023-06-26T09:49:06;6.38;;;3.90;;
7961;SDS011;4026;43.652;24.906;2023-06-26T09:51:34;6.38;;;4.07;;
7961;SDS011;4026;43.652;24.906;2023-06-26T09:54:02;5.30;;;4.03;;
7961;SDS011;4026;43.652;24.906;2023-06-26T09:56:30;6.82;;;3.80;;
7961;SDS011;4026;43.652;24.906;2023-06-26T09:58:59;6.00;;;4.07;;
7961;SDS011;4026;43.652;24.906;2023-06-26T10:01:27;6.72;;;4.13;;
7961;SDS011;4026;43.652;24.906;2023-06-26T10:03:55;5.63;;;4.10;;
7961;SDS011;4026;43.652;24.906;2023-06-26T10:06:24;5.32;;;3.92;;
7961;SDS011;4026;43.652;24.906;2023-06-26T10:08:55;6.80;;;4.25;;
7961;SDS011;4026;43.652;24.906;2023-06-26T10:11:24;4.60;;;3.63;;
7961;SDS011;4026;43.652;24.906;2023-06-26T10:13:57;7.10;;;3.97;;
7961;SDS011;4026;43.652;24.906;2023-06-26T10:16:26;6.70;;;4.07;;
7961;SDS011;4026;43.652;24.906;2023-06-26T10:18:56;6.13;;;3.75;;
7961;SDS011;4026;43.652;24.906;2023-06-26T10:21:27;4.97;;;3.90;;
7961;SDS011;4026;43.652;24.906;2023-06-26T10:23:57;6.25;;;3.88;;
7961;SDS011;4026;43.652;24.906;2023-06-26T10:26:25;7.60;;;4.18;;
7961;SDS011;4026;43.652;24.906;2023-06-26T10:28:54;5.18;;;3.80;;
7961;SDS011;4026;43.652;24.906;2023-06-26T10:31:25;6.90;;;3.97;;
7961;SDS011;4026;43.652;24.906;2023-06-26T10:33:54;6.32;;;3.78;;
7961;SDS011;4026;43.652;24.906;2023-06-26T10:36:26;4.32;;;2.97;;
7961;SDS011;4026;43.652;24.906;2023-06-26T10:38:55;4.47;;;2.80;;
7961;SDS011;4026;43.652;24.906;2023-06-26T10:41:23;4.60;;;3.70;;
7961;SDS011;4026;43.652;24.906;2023-06-26T10:43:51;4.97;;;3.20;;
7961;SDS011;4026;43.652;24.906;2023-06-26T10:46:18;6.10;;;3.95;;
7961;SDS011;4026;43.652;24.906;2023-06-26T10:51:39;4.15;;;3.00;;
7961;SDS011;4026;43.652;24.906;2023-06-26T10:54:14;5.85;;;3.50;;
7961;SDS011;4026;43.652;24.906;2023-06-26T10:56:42;4.63;;;3.35;;
7961;SDS011;4026;43.652;24.906;2023-06-26T10:59:16;5.10;;;3.28;;
7961;SDS011;4026;43.652;24.906;2023-06-26T11:01:44;4.43;;;2.85;;
7961;SDS011;4026;43.652;24.906;2023-06-26T11:04:14;5.75;;;3.22;;
7961;SDS011;4026;43.652;24.906;2023-06-26T11:06:44;4.15;;;3.35;;
7961;SDS011;4026;43.652;24.906;2023-06-26T11:09:14;4.38;;;3.30;;
7961;SDS011;4026;43.652;24.906;2023-06-26T11:11:57;4.75;;;3.10;;
7961;SDS011;4026;43.652;24.906;2023-06-26T11:14:31;4.93;;;3.45;;
7961;SDS011;4026;43.652;24.906;2023-06-26T11:16:58;4.70;;;3.10;;
7961;SDS011;4026;43.652;24.906;2023-06-26T11:19:29;3.75;;;2.90;;
7961;SDS011;4026;43.652;24.906;2023-06-26T11:22:03;4.25;;;2.65;;
7961;SDS011;4026;43.652;24.906;2023-06-26T11:24:31;5.68;;;3.13;;
7961;SDS011;4026;43.652;24.906;2023-06-26T11:27:02;5.03;;;2.95;;
7961;SDS011;4026;43.652;24.906;2023-06-26T11:29:31;6.93;;;3.10;;
7961;SDS011;4026;43.652;24.906;2023-06-26T11:32:00;5.65;;;3.13;;
7961;SDS011;4026;43.652;24.906;2023-06-26T11:34:32;4.32;;;3.28;;
7961;SDS011;4026;43.652;24.906;2023-06-26T11:37:00;4.70;;;2.95;;
7961;SDS011;4026;43.652;24.906;2023-06-26T11:39:28;5.03;;;3.00;;
7961;SDS011;4026;43.652;24.906;2023-06-26T11:41:55;3.42;;;2.60;;
7961;SDS011;4026;43.652;24.906;2023-06-26T11:44:22;4.07;;;3.03;;
7961;SDS011;4026;43.652;24.906;2023-06-26T11:46:52;3.92;;;2.83;;
7961;SDS011;4026;43.652;24.906;2023-06-26T11:49:20;7.45;;;3.00;;
7961;SDS011;4026;43.652;24.906;2023-06-26T11:51:52;4.30;;;3.20;;
7961;SDS011;4026;43.652;24.906;2023-06-26T11:54:24;5.07;;;2.80;;
7961;SDS011;4026;43.652;24.906;2023-06-26T11:56:55;3.67;;;2.78;;
7961;SDS011;4026;43.652;24.906;2023-06-26T11:59:23;3.47;;;2.85;;
7961;SDS011;4026;43.652;24.906;2023-06-26T12:01:52;4.20;;;3.17;;
7961;SDS011;4026;43.652;24.906;2023-06-26T12:04:19;6.75;;;3.15;;
7961;SDS011;4026;43.652;24.906;2023-06-26T12:06:47;4.10;;;2.95;;
7961;SDS011;4026;43.652;24.906;2023-06-26T12:09:18;5.45;;;3.03;;
7961;SDS011;4026;43.652;24.906;2023-06-26T12:11:46;4.28;;;3.15;;
7961;SDS011;4026;43.652;24.906;2023-06-26T12:14:14;4.80;;;2.92;;
7961;SDS011;4026;43.652;24.906;2023-06-26T12:16:43;4.97;;;2.85;;
7961;SDS011;4026;43.652;24.906;2023-06-26T12:19:10;4.30;;;2.88;;
7961;SDS011;4026;43.652;24.906;2023-06-26T12:21:44;3.72;;;3.05;;
7961;SDS011;4026;43.652;24.906;2023-06-26T12:24:14;7.90;;;3.28;;
7961;SDS011;4026;43.652;24.906;2023-06-26T12:26:43;3.67;;;2.95;;
7961;SDS011;4026;43.652;24.906;2023-06-26T12:29:12;4.10;;;3.03;;
7961;SDS011;4026;43.652;24.906;2023-06-26T12:31:40;4.28;;;3.03;;
7961;SDS011;4026;43.652;24.906;2023-06-26T12:34:08;3.70;;;2.60;;
7961;SDS011;4026;43.652;24.906;2023-06-26T12:36:40;5.90;;;2.80;;
7961;SDS011;4026;43.652;24.906;2023-06-26T12:39:09;5.10;;;2.90;;
7961;SDS011;4026;43.652;24.906;2023-06-26T12:41:45;6.75;;;3.45;;
7961;SDS011;4026;43.652;24.906;2023-06-26T12:44:19;6.10;;;3.60;;
7961;SDS011;4026;43.652;24.906;2023-06-26T12:46:47;4.78;;;3.20;;
7961;SDS011;4026;43.652;24.906;2023-06-26T12:49:15;7.00;;;3.22;;
7961;SDS011;4026;43.652;24.906;2023-06-26T12:51:43;6.40;;;3.40;;
7961;SDS011;4026;43.652;24.906;2023-06-26T12:54:10;4.00;;;2.90;;
7961;SDS011;4026;43.652;24.906;2023-06-26T12:56:36;5.13;;;3.15;;
7961;SDS011;4026;43.652;24.906;2023-06-26T12:59:05;3.78;;;3.03;;
7961;SDS011;4026;43.652;24.906;2023-06-26T13:01:32;6.07;;;3.22;;
7961;SDS011;4026;43.652;24.906;2023-06-26T13:03:59;4.35;;;3.00;;
7961;SDS011;4026;43.652;24.906;2023-06-26T13:06:26;5.72;;;3.38;;
7961;SDS011;4026;43.652;24.906;2023-06-26T13:08:53;4.97;;;3.50;;
7961;SDS011;4026;43.652;24.906;2023-06-26T13:11:20;5.38;;;3.33;;
7961;SDS011;4026;43.652;24.906;2023-06-26T13:13:47;6.28;;;3.97;;
7961;SDS011;4026;43.652;24.906;2023-06-26T13:16:16;5.40;;;3.50;;
7961;SDS011;4026;43.652;24.906;2023-06-26T13:18:43;5.60;;;4.00;;
7961;SDS011;4026;43.652;24.906;2023-06-26T13:21:12;5.65;;;3.88;;
7961;SDS011;4026;43.652;24.906;2023-06-26T13:23:39;6.35;;;4.45;;
7961;SDS011;4026;43.652;24.906;2023-06-26T13:26:06;4.93;;;3.53;;
7961;SDS011;4026;43.652;24.906;2023-06-26T13:28:33;5.38;;;3.67;;
7961;SDS011;4026;43.652;24.906;2023-06-26T13:31:00;5.20;;;3.67;;
7961;SDS011;4026;43.652;24.906;2023-06-26T13:33:29;7.30;;;4.38;;
7961;SDS011;4026;43.652;24.906;2023-06-26T13:35:56;5.63;;;3.80;;
7961;SDS011;4026;43.652;24.906;2023-06-26T13:38:24;6.63;;;3.72;;
7961;SDS011;4026;43.652;24.906;2023-06-26T13:40:51;6.28;;;3.55;;
7961;SDS011;4026;43.652;24.906;2023-06-26T13:43:20;7.72;;;4.35;;
7961;SDS011;4026;43.652;24.906;2023-06-26T13:45:47;5.75;;;3.80;;
7961;SDS011;4026;43.652;24.906;2023-06-26T13:48:15;4.75;;;3.63;;
7961;SDS011;4026;43.652;24.906;2023-06-26T13:50:43;8.27;;;3.78;;
7961;SDS011;4026;43.652;24.906;2023-06-26T13:53:10;7.20;;;3.35;;
7961;SDS011;4026;43.652;24.906;2023-06-26T13:55:37;5.15;;;2.97;;
7961;SDS011;4026;43.652;24.906;2023-06-26T13:58:04;4.60;;;3.25;;
7961;SDS011;4026;43.652;24.906;2023-06-26T14:00:31;4.38;;;3.10;;
7961;SDS011;4026;43.652;24.906;2023-06-26T14:02:59;4.75;;;3.20;;
7961;SDS011;4026;43.652;24.906;2023-06-26T14:05:28;4.53;;;3.08;;
7961;SDS011;4026;43.652;24.906;2023-06-26T14:07:56;5.00;;;3.47;;
7961;SDS011;4026;43.652;24.906;2023-06-26T14:10:23;4.68;;;3.10;;
7961;SDS011;4026;43.652;24.906;2023-06-26T14:12:50;5.78;;;3.22;;
7961;SDS011;4026;43.652;24.906;2023-06-26T14:15:17;4.15;;;2.95;;
7961;SDS011;4026;43.652;24.906;2023-06-26T14:17:44;4.45;;;3.00;;
7961;SDS011;4026;43.652;24.906;2023-06-26T14:20:12;3.67;;;2.97;;
7961;SDS011;4026;43.652;24.906;2023-06-26T14:22:39;3.65;;;2.58;;
7961;SDS011;4026;43.652;24.906;2023-06-26T14:25:08;6.20;;;2.70;;
7961;SDS011;4026;43.652;24.906;2023-06-26T14:27:37;4.30;;;3.03;;
7961;SDS011;4026;43.652;24.906;2023-06-26T14:30:05;3.65;;;2.70;;
7961;SDS011;4026;43.652;24.906;2023-06-26T14:32:33;3.30;;;2.53;;
7961;SDS011;4026;43.652;24.906;2023-06-26T14:35:00;4.75;;;3.03;;
7961;SDS011;4026;43.652;24.906;2023-06-26T14:37:29;2.75;;;2.10;;
7961;SDS011;4026;43.652;24.906;2023-06-26T14:39:56;2.80;;;2.10;;
7961;SDS011;4026;43.652;24.906;2023-06-26T14:42:25;3.85;;;2.47;;
7961;SDS011;4026;43.652;24.906;2023-06-26T14:44:52;5.43;;;2.90;;
7961;SDS011;4026;43.652;24.906;2023-06-26T14:47:19;3.35;;;2.70;;
7961;SDS011;4026;43.652;24.906;2023-06-26T14:49:46;3.22;;;2.67;;
7961;SDS011;4026;43.652;24.906;2023-06-26T14:52:12;4.03;;;2.47;;
7961;SDS011;4026;43.652;24.906;2023-06-26T14:54:39;3.33;;;2.40;;
7961;SDS011;4026;43.652;24.906;2023-06-26T14:57:06;3.00;;;2.15;;
7961;SDS011;4026;43.652;24.906;2023-06-26T14:59:35;4.95;;;2.08;;
7961;SDS011;4026;43.652;24.906;2023-06-26T15:02:02;2.70;;;1.70;;
7961;SDS011;4026;43.652;24.906;2023-06-26T15:04:29;2.60;;;2.00;;
7961;SDS011;4026;43.652;24.906;2023-06-26T15:06:56;3.00;;;2.05;;
7961;SDS011;4026;43.652;24.906;2023-06-26T15:09:24;4.40;;;2.10;;
7961;SDS011;4026;43.652;24.906;2023-06-26T15:11:50;2.60;;;2.20;;
7961;SDS011;4026;43.652;24.906;2023-06-26T15:14:17;3.28;;;1.90;;
7961;SDS011;4026;43.652;24.906;2023-06-26T15:16:46;2.28;;;1.95;;
7961;SDS011;4026;43.652;24.906;2023-06-26T15:19:13;2.72;;;2.10;;
7961;SDS011;4026;43.652;24.906;2023-06-26T15:21:39;2.95;;;2.25;;
7961;SDS011;4026;43.652;24.906;2023-06-26T15:24:06;3.35;;;1.95;;
7961;SDS011;4026;43.652;24.906;2023-06-26T15:26:33;3.78;;;2.33;;
7961;SDS011;4026;43.652;24.906;2023-06-26T15:29:01;4.57;;;2.33;;
7961;SDS011;4026;43.652;24.906;2023-06-26T15:31:28;2.95;;;2.13;;
7961;SDS011;4026;43.652;24.906;2023-06-26T15:33:57;3.22;;;2.10;;